sensor_id;sensor_type;location;lat;lon;timestamp;P1;durP1;ratioP1;P2;durP2;ratioP2
67965;SDS011;54749;47.850;9.002;2023-03-24T00:00:22;11.63;;;4.97;;
67965;SDS011;54749;47.850;9.002;2023-03-24T00:03:09;13.48;;;5.97;;
67965;SDS011;54749;47.850;9.002;2023-03-24T00:05:37;12.65;;;5.85;;
67965;SDS011;54749;47.850;9.002;2023-03-24T00:08:04;11.80;;;5.35;;
67965;SDS011;54749;47.850;9.002;2023-03-24T00:10:31;11.32;;;5.47;;
67965;SDS011;54749;47.850;9.002;2023-03-24T00:13:00;11.70;;;5.20;;
67965;SDS011;54749;47.850;9.002;2023-03-24T00:15:28;12.45;;;5.50;;
67965;SDS011;54749;47.850;9.002;2023-03-24T00:17:55;15.82;;;6.22;;
67965;SDS011;54749;47.850;9.002;2023-03-24T00:20:24;10.15;;;5.30;;
67965;SDS011;54749;47.850;9.002;2023-03-24T00:22:53;8.65;;;4.05;;
67965;SDS011;54749;47.850;9.002;2023-03-24T00:25:28;8.80;;;4.17;;
67965;SDS011;54749;47.850;9.002;2023-03-24T00:28:02;10.32;;;4.75;;
67965;SDS011;54749;47.850;9.002;2023-03-24T00:30:32;10.85;;;4.72;;
67965;SDS011;54749;47.850;9.002;2023-03-24T00:33:00;9.23;;;4.40;;
67965;SDS011;54749;47.850;9.002;2023-03-24T00:35:28;11.27;;;4.55;;
67965;SDS011;54749;47.850;9.002;2023-03-24T00:37:55;10.20;;;5.03;;
67965;SDS011;54749;47.850;9.002;2023-03-24T00:40:23;11.18;;;5.00;;
67965;SDS011;54749;47.850;9.002;2023-03-24T00:42:50;9.85;;;4.40;;
67965;SDS011;54749;47.850;9.002;2023-03-24T00:45:20;13.27;;;5.45;;
67965;SDS011;54749;47.850;9.002;2023-03-24T00:47:50;13.10;;;6.00;;
67965;SDS011;54749;47.850;9.002;2023-03-24T00:50:20;17.50;;;6.80;;
67965;SDS011;54749;47.850;9.002;2023-03-24T00:52:53;16.08;;;6.57;;
67965;SDS011;54749;47.850;9.002;2023-03-24T00:55:21;20.67;;;7.82;;
67965;SDS011;54749;47.850;9.002;2023-03-24T00:57:49;21.35;;;7.88;;
67965;SDS011;54749;47.850;9.002;2023-03-24T01:00:18;16.58;;;7.50;;
67965;SDS011;54749;47.850;9.002;2023-03-24T01:02:52;18.40;;;7.23;;
67965;SDS011;54749;47.850;9.002;2023-03-24T01:05:23;17.02;;;6.82;;
67965;SDS011;54749;47.850;9.002;2023-03-24T01:07:57;13.05;;;6.15;;
67965;SDS011;54749;47.850;9.002;2023-03-24T01:10:32;11.80;;;5.55;;
67965;SDS011;54749;47.850;9.002;2023-03-24T01:13:01;11.85;;;4.82;;
67965;SDS011;54749;47.850;9.002;2023-03-24T01:15:30;12.97;;;5.67;;
67965;SDS011;54749;47.850;9.002;2023-03-24T01:18:02;11.07;;;5.13;;
67965;SDS011;54749;47.850;9.002;2023-03-24T01:20:30;11.07;;;5.05;;
67965;SDS011;54749;47.850;9.002;2023-03-24T01:23:01;11.32;;;4.70;;
67965;SDS011;54749;47.850;9.002;2023-03-24T01:25:31;10.07;;;4.50;;
67965;SDS011;54749;47.850;9.002;2023-03-24T01:27:58;10.17;;;4.60;;
67965;SDS011;54749;47.850;9.002;2023-03-24T01:30:26;8.90;;;4.68;;
67965;SDS011;54749;47.850;9.002;2023-03-24T01:32:55;10.38;;;4.20;;
67965;SDS011;54749;47.850;9.002;2023-03-24T01:35:24;9.73;;;4.63;;
67965;SDS011;54749;47.850;9.002;2023-03-24T01:37:54;9.20;;;4.50;;
67965;SDS011;54749;47.850;9.002;2023-03-24T01:40:26;8.33;;;4.03;;
67965;SDS011;54749;47.850;9.002;2023-03-24T01:42:56;8.65;;;3.88;;
67965;SDS011;54749;47.850;9.002;2023-03-24T01:48:49;8.48;;;3.78;;
67965;SDS011;54749;47.850;9.002;2023-03-24T01:51:18;7.57;;;3.17;;
67965;SDS011;54749;47.850;9.002;2023-03-24T01:54:04;10.60;;;4.00;;
67965;SDS011;54749;47.850;9.002;2023-03-24T01:56:38;14.63;;;4.90;;
67965;SDS011;54749;47.850;9.002;2023-03-24T01:59:10;10.75;;;4.50;;
67965;SDS011;54749;47.850;9.002;2023-03-24T02:01:45;11.70;;;5.15;;
67965;SDS011;54749;47.850;9.002;2023-03-24T02:04:40;10.00;;;4.35;;
67965;SDS011;54749;47.850;9.002;2023-03-24T02:07:12;10.30;;;4.93;;
67965;SDS011;54749;47.850;9.002;2023-03-24T02:09:44;11.13;;;4.85;;
67965;SDS011;54749;47.850;9.002;2023-03-24T02:12:12;12.52;;;5.03;;
67965;SDS011;54749;47.850;9.002;2023-03-24T02:14:40;13.23;;;5.32;;
67965;SDS011;54749;47.850;9.002;2023-03-24T02:17:13;12.18;;;5.80;;
67965;SDS011;54749;47.850;9.002;2023-03-24T02:28:46;11.30;;;5.40;;
67965;SDS011;54749;47.850;9.002;2023-03-24T02:51:24;10.15;;;5.03;;
67965;SDS011;54749;47.850;9.002;2023-03-24T02:54:06;12.13;;;5.38;;
67965;SDS011;54749;47.850;9.002;2023-03-24T02:56:40;12.82;;;5.35;;
67965;SDS011;54749;47.850;9.002;2023-03-24T03:00:16;13.38;;;5.38;;
67965;SDS011;54749;47.850;9.002;2023-03-24T03:03:15;13.90;;;6.17;;
67965;SDS011;54749;47.850;9.002;2023-03-24T03:06:01;13.63;;;5.20;;
67965;SDS011;54749;47.850;9.002;2023-03-24T03:08:33;15.35;;;7.60;;
67965;SDS011;54749;47.850;9.002;2023-03-24T03:11:02;14.50;;;6.18;;
67965;SDS011;54749;47.850;9.002;2023-03-24T03:13:34;8.95;;;4.43;;
67965;SDS011;54749;47.850;9.002;2023-03-24T03:16:05;10.53;;;4.60;;
67965;SDS011;54749;47.850;9.002;2023-03-24T03:18:40;9.50;;;4.18;;
67965;SDS011;54749;47.850;9.002;2023-03-24T03:21:12;9.35;;;4.25;;
67965;SDS011;54749;47.850;9.002;2023-03-24T03:24:16;10.40;;;4.40;;
67965;SDS011;54749;47.850;9.002;2023-03-24T03:26:38;11.95;;;5.53;;
67965;SDS011;54749;47.850;9.002;2023-03-24T03:29:09;19.10;;;7.30;;
67965;SDS011;54749;47.850;9.002;2023-03-24T03:31:52;15.70;;;6.90;;
67965;SDS011;54749;47.850;9.002;2023-03-24T03:34:32;19.80;;;7.40;;
67965;SDS011;54749;47.850;9.002;2023-03-24T03:40:02;15.20;;;5.47;;
67965;SDS011;54749;47.850;9.002;2023-03-24T03:42:38;13.63;;;5.20;;
67965;SDS011;54749;47.850;9.002;2023-03-24T03:45:06;14.45;;;5.20;;
67965;SDS011;54749;47.850;9.002;2023-03-24T03:47:35;13.30;;;5.40;;
67965;SDS011;54749;47.850;9.002;2023-03-24T03:50:03;13.00;;;4.82;;
67965;SDS011;54749;47.850;9.002;2023-03-24T03:52:33;11.13;;;4.30;;
67965;SDS011;54749;47.850;9.002;2023-03-24T03:55:03;9.50;;;4.40;;
67965;SDS011;54749;47.850;9.002;2023-03-24T03:57:31;9.63;;;4.07;;
67965;SDS011;54749;47.850;9.002;2023-03-24T04:00:15;10.50;;;4.50;;
67965;SDS011;54749;47.850;9.002;2023-03-24T04:05:51;11.82;;;4.25;;
67965;SDS011;54749;47.850;9.002;2023-03-24T04:08:31;16.00;;;6.03;;
67965;SDS011;54749;47.850;9.002;2023-03-24T04:14:39;9.93;;;4.55;;
67965;SDS011;54749;47.850;9.002;2023-03-24T04:17:36;15.60;;;5.57;;
67965;SDS011;54749;47.850;9.002;2023-03-24T04:20:45;15.38;;;6.00;;
67965;SDS011;54749;47.850;9.002;2023-03-24T04:24:04;10.67;;;4.60;;
67965;SDS011;54749;47.850;9.002;2023-03-24T04:28:49;11.73;;;4.28;;
67965;SDS011;54749;47.850;9.002;2023-03-24T04:31:25;11.40;;;5.22;;
67965;SDS011;54749;47.850;9.002;2023-03-24T04:34:02;13.40;;;5.03;;
67965;SDS011;54749;47.850;9.002;2023-03-24T04:36:56;14.07;;;5.27;;
67965;SDS011;54749;47.850;9.002;2023-03-24T04:39:39;15.82;;;5.68;;
67965;SDS011;54749;47.850;9.002;2023-03-24T04:42:21;16.27;;;4.95;;
67965;SDS011;54749;47.850;9.002;2023-03-24T04:44:51;13.27;;;5.38;;
67965;SDS011;54749;47.850;9.002;2023-03-24T04:47:39;14.13;;;5.60;;
67965;SDS011;54749;47.850;9.002;2023-03-24T04:53:05;13.13;;;5.53;;
67965;SDS011;54749;47.850;9.002;2023-03-24T04:55:47;10.98;;;4.82;;
67965;SDS011;54749;47.850;9.002;2023-03-24T04:58:40;13.40;;;6.13;;
67965;SDS011;54749;47.850;9.002;2023-03-24T05:01:07;10.27;;;4.65;;
67965;SDS011;54749;47.850;9.002;2023-03-24T05:03:36;13.67;;;6.07;;
67965;SDS011;54749;47.850;9.002;2023-03-24T05:06:04;11.77;;;5.88;;
67965;SDS011;54749;47.850;9.002;2023-03-24T05:08:32;12.77;;;5.63;;
67965;SDS011;54749;47.850;9.002;2023-03-24T05:11:00;12.98;;;5.57;;
67965;SDS011;54749;47.850;9.002;2023-03-24T05:13:28;12.45;;;5.13;;
67965;SDS011;54749;47.850;9.002;2023-03-24T05:15:59;12.37;;;5.53;;
67965;SDS011;54749;47.850;9.002;2023-03-24T05:18:39;14.38;;;5.45;;
67965;SDS011;54749;47.850;9.002;2023-03-24T05:21:07;12.82;;;5.20;;
67965;SDS011;54749;47.850;9.002;2023-03-24T05:23:35;16.65;;;5.38;;
67965;SDS011;54749;47.850;9.002;2023-03-24T05:26:02;11.07;;;5.03;;
67965;SDS011;54749;47.850;9.002;2023-03-24T05:28:37;12.00;;;5.17;;
67965;SDS011;54749;47.850;9.002;2023-03-24T05:31:04;11.80;;;5.25;;
67965;SDS011;54749;47.850;9.002;2023-03-24T05:33:41;10.68;;;4.90;;
67965;SDS011;54749;47.850;9.002;2023-03-24T05:36:12;8.90;;;4.43;;
67965;SDS011;54749;47.850;9.002;2023-03-24T05:38:41;11.10;;;4.65;;
67965;SDS011;54749;47.850;9.002;2023-03-24T05:41:08;15.07;;;6.57;;
67965;SDS011;54749;47.850;9.002;2023-03-24T05:43:39;12.57;;;5.97;;
67965;SDS011;54749;47.850;9.002;2023-03-24T05:46:10;11.30;;;5.43;;
67965;SDS011;54749;47.850;9.002;2023-03-24T05:48:37;14.00;;;5.60;;
67965;SDS011;54749;47.850;9.002;2023-03-24T05:51:11;10.77;;;5.25;;
67965;SDS011;54749;47.850;9.002;2023-03-24T05:53:38;11.63;;;5.67;;
67965;SDS011;54749;47.850;9.002;2023-03-24T05:56:14;11.52;;;5.00;;
67965;SDS011;54749;47.850;9.002;2023-03-24T05:59:02;12.88;;;5.70;;
67965;SDS011;54749;47.850;9.002;2023-03-24T06:01:49;10.88;;;5.05;;
67965;SDS011;54749;47.850;9.002;2023-03-24T06:04:28;11.52;;;5.10;;
67965;SDS011;54749;47.850;9.002;2023-03-24T06:07:02;10.23;;;4.63;;
67965;SDS011;54749;47.850;9.002;2023-03-24T06:09:32;13.43;;;5.68;;
67965;SDS011;54749;47.850;9.002;2023-03-24T06:12:05;12.45;;;6.25;;
67965;SDS011;54749;47.850;9.002;2023-03-24T06:14:35;12.77;;;5.63;;
67965;SDS011;54749;47.850;9.002;2023-03-24T06:17:08;12.90;;;5.35;;
67965;SDS011;54749;47.850;9.002;2023-03-24T06:19:42;11.17;;;5.07;;
67965;SDS011;54749;47.850;9.002;2023-03-24T06:22:34;11.93;;;5.40;;
67965;SDS011;54749;47.850;9.002;2023-03-24T06:25:05;14.50;;;5.90;;
67965;SDS011;54749;47.850;9.002;2023-03-24T06:27:36;10.60;;;5.10;;
67965;SDS011;54749;47.850;9.002;2023-03-24T06:30:04;12.80;;;4.95;;
67965;SDS011;54749;47.850;9.002;2023-03-24T06:32:32;13.00;;;5.80;;
67965;SDS011;54749;47.850;9.002;2023-03-24T06:34:59;15.18;;;6.05;;
67965;SDS011;54749;47.850;9.002;2023-03-24T06:37:35;15.98;;;8.40;;
67965;SDS011;54749;47.850;9.002;2023-03-24T06:40:04;19.50;;;9.63;;
67965;SDS011;54749;47.850;9.002;2023-03-24T06:42:33;20.08;;;11.30;;
67965;SDS011;54749;47.850;9.002;2023-03-24T06:45:00;17.73;;;8.77;;
67965;SDS011;54749;47.850;9.002;2023-03-24T06:47:27;16.77;;;7.90;;
67965;SDS011;54749;47.850;9.002;2023-03-24T06:49:55;13.98;;;7.32;;
67965;SDS011;54749;47.850;9.002;2023-03-24T06:52:22;16.17;;;7.25;;
67965;SDS011;54749;47.850;9.002;2023-03-24T06:54:50;13.18;;;6.43;;
67965;SDS011;54749;47.850;9.002;2023-03-24T06:57:18;12.70;;;6.40;;
67965;SDS011;54749;47.850;9.002;2023-03-24T07:00:14;15.03;;;6.40;;
67965;SDS011;54749;47.850;9.002;2023-03-24T07:03:01;12.88;;;5.45;;
67965;SDS011;54749;47.850;9.002;2023-03-24T07:05:29;13.10;;;6.80;;
67965;SDS011;54749;47.850;9.002;2023-03-24T07:07:56;19.02;;;9.32;;
67965;SDS011;54749;47.850;9.002;2023-03-24T07:10:37;16.50;;;8.10;;
67965;SDS011;54749;47.850;9.002;2023-03-24T07:13:06;13.87;;;5.77;;
67965;SDS011;54749;47.850;9.002;2023-03-24T07:15:35;13.43;;;6.18;;
67965;SDS011;54749;47.850;9.002;2023-03-24T07:18:03;10.40;;;5.30;;
67965;SDS011;54749;47.850;9.002;2023-03-24T07:20:37;11.00;;;5.07;;
67965;SDS011;54749;47.850;9.002;2023-03-24T07:23:13;12.52;;;5.75;;
67965;SDS011;54749;47.850;9.002;2023-03-24T07:25:40;11.20;;;4.93;;
67965;SDS011;54749;47.850;9.002;2023-03-24T07:28:24;9.23;;;5.00;;
67965;SDS011;54749;47.850;9.002;2023-03-24T07:30:52;12.20;;;5.30;;
67965;SDS011;54749;47.850;9.002;2023-03-24T07:33:21;10.32;;;4.90;;
67965;SDS011;54749;47.850;9.002;2023-03-24T07:35:54;7.95;;;4.40;;
67965;SDS011;54749;47.850;9.002;2023-03-24T07:38:24;9.37;;;4.70;;
67965;SDS011;54749;47.850;9.002;2023-03-24T07:40:58;10.93;;;5.20;;
67965;SDS011;54749;47.850;9.002;2023-03-24T07:43:29;14.48;;;7.28;;
67965;SDS011;54749;47.850;9.002;2023-03-24T07:46:05;16.20;;;8.73;;
67965;SDS011;54749;47.850;9.002;2023-03-24T07:48:35;15.13;;;8.68;;
67965;SDS011;54749;47.850;9.002;2023-03-24T07:51:02;14.17;;;9.00;;
67965;SDS011;54749;47.850;9.002;2023-03-24T07:53:49;17.13;;;9.25;;
67965;SDS011;54749;47.850;9.002;2023-03-24T07:56:26;20.25;;;10.25;;
67965;SDS011;54749;47.850;9.002;2023-03-24T07:58:56;32.35;;;25.52;;
67965;SDS011;54749;47.850;9.002;2023-03-24T08:01:43;20.30;;;15.07;;
67965;SDS011;54749;47.850;9.002;2023-03-24T08:04:14;20.43;;;12.77;;
67965;SDS011;54749;47.850;9.002;2023-03-24T08:07:11;19.30;;;9.98;;
67965;SDS011;54749;47.850;9.002;2023-03-24T08:09:39;15.75;;;7.70;;
67965;SDS011;54749;47.850;9.002;2023-03-24T08:12:06;23.92;;;14.05;;
67965;SDS011;54749;47.850;9.002;2023-03-24T08:14:46;21.17;;;12.10;;
67965;SDS011;54749;47.850;9.002;2023-03-24T08:17:13;23.03;;;11.33;;
67965;SDS011;54749;47.850;9.002;2023-03-24T08:19:40;21.88;;;9.65;;
67965;SDS011;54749;47.850;9.002;2023-03-24T08:22:24;12.57;;;5.68;;
67965;SDS011;54749;47.850;9.002;2023-03-24T08:24:53;10.88;;;5.00;;
67965;SDS011;54749;47.850;9.002;2023-03-24T08:27:20;14.15;;;7.22;;
67965;SDS011;54749;47.850;9.002;2023-03-24T08:29:47;14.27;;;5.80;;
67965;SDS011;54749;47.850;9.002;2023-03-24T08:32:14;12.30;;;5.82;;
67965;SDS011;54749;47.850;9.002;2023-03-24T08:34:41;14.57;;;6.95;;
67965;SDS011;54749;47.850;9.002;2023-03-24T08:37:08;15.25;;;5.82;;
67965;SDS011;54749;47.850;9.002;2023-03-24T08:39:37;10.82;;;4.88;;
67965;SDS011;54749;47.850;9.002;2023-03-24T08:42:04;11.90;;;5.00;;
67965;SDS011;54749;47.850;9.002;2023-03-24T08:44:32;16.63;;;6.22;;
67965;SDS011;54749;47.850;9.002;2023-03-24T08:46:59;13.15;;;5.72;;
67965;SDS011;54749;47.850;9.002;2023-03-24T08:49:27;14.25;;;5.47;;
67965;SDS011;54749;47.850;9.002;2023-03-24T08:51:54;10.75;;;5.60;;
67965;SDS011;54749;47.850;9.002;2023-03-24T08:54:21;11.57;;;5.40;;
67965;SDS011;54749;47.850;9.002;2023-03-24T08:56:51;10.60;;;5.47;;
67965;SDS011;54749;47.850;9.002;2023-03-24T08:59:19;10.77;;;5.07;;
67965;SDS011;54749;47.850;9.002;2023-03-24T09:01:46;9.48;;;4.50;;
67965;SDS011;54749;47.850;9.002;2023-03-24T09:04:13;10.65;;;4.90;;
67965;SDS011;54749;47.850;9.002;2023-03-24T09:06:40;9.83;;;4.97;;
67965;SDS011;54749;47.850;9.002;2023-03-24T09:09:07;10.05;;;4.82;;
67965;SDS011;54749;47.850;9.002;2023-03-24T09:11:34;9.98;;;5.55;;
67965;SDS011;54749;47.850;9.002;2023-03-24T09:14:04;10.45;;;5.30;;
67965;SDS011;54749;47.850;9.002;2023-03-24T09:16:31;11.43;;;5.80;;
67965;SDS011;54749;47.850;9.002;2023-03-24T09:18:59;10.17;;;4.83;;
67965;SDS011;54749;47.850;9.002;2023-03-24T09:21:26;9.60;;;5.10;;
67965;SDS011;54749;47.850;9.002;2023-03-24T09:23:53;10.35;;;5.43;;
67965;SDS011;54749;47.850;9.002;2023-03-24T09:26:20;11.07;;;4.90;;
67965;SDS011;54749;47.850;9.002;2023-03-24T09:28:48;10.98;;;5.50;;
67965;SDS011;54749;47.850;9.002;2023-03-24T09:31:15;8.40;;;4.70;;
67965;SDS011;54749;47.850;9.002;2023-03-24T09:33:43;9.75;;;4.00;;
67965;SDS011;54749;47.850;9.002;2023-03-24T09:36:10;7.65;;;4.47;;
67965;SDS011;54749;47.850;9.002;2023-03-24T09:38:37;8.48;;;4.53;;
67965;SDS011;54749;47.850;9.002;2023-03-24T09:41:10;7.78;;;3.72;;
67965;SDS011;54749;47.850;9.002;2023-03-24T09:43:49;11.00;;;3.90;;
67965;SDS011;54749;47.850;9.002;2023-03-24T09:46:25;9.43;;;3.97;;
67965;SDS011;54749;47.850;9.002;2023-03-24T09:48:57;9.88;;;3.60;;
67965;SDS011;54749;47.850;9.002;2023-03-24T09:51:25;7.28;;;3.42;;
67965;SDS011;54749;47.850;9.002;2023-03-24T09:53:56;6.85;;;3.40;;
67965;SDS011;54749;47.850;9.002;2023-03-24T09:56:25;6.57;;;3.10;;
67965;SDS011;54749;47.850;9.002;2023-03-24T09:59:00;11.35;;;3.00;;
67965;SDS011;54749;47.850;9.002;2023-03-24T10:01:29;6.80;;;2.70;;
67965;SDS011;54749;47.850;9.002;2023-03-24T10:03:57;7.10;;;2.40;;
67965;SDS011;54749;47.850;9.002;2023-03-24T10:06:27;16.92;;;3.95;;
67965;SDS011;54749;47.850;9.002;2023-03-24T10:18:12;8.70;;;2.70;;
67965;SDS011;54749;47.850;9.002;2023-03-24T10:20:51;5.50;;;2.90;;
67965;SDS011;54749;47.850;9.002;2023-03-24T10:23:36;6.77;;;3.00;;
67965;SDS011;54749;47.850;9.002;2023-03-24T10:32:22;7.28;;;2.47;;
67965;SDS011;54749;47.850;9.002;2023-03-24T10:34:54;6.07;;;2.50;;
67965;SDS011;54749;47.850;9.002;2023-03-24T10:37:27;6.50;;;2.53;;
67965;SDS011;54749;47.850;9.002;2023-03-24T10:39:56;5.05;;;2.00;;
67965;SDS011;54749;47.850;9.002;2023-03-24T10:42:24;5.05;;;2.00;;
67965;SDS011;54749;47.850;9.002;2023-03-24T10:44:54;5.93;;;2.05;;
67965;SDS011;54749;47.850;9.002;2023-03-24T10:47:26;5.45;;;1.80;;
67965;SDS011;54749;47.850;9.002;2023-03-24T10:50:03;5.30;;;2.10;;
67965;SDS011;54749;47.850;9.002;2023-03-24T10:52:41;5.03;;;2.13;;
67965;SDS011;54749;47.850;9.002;2023-03-24T10:55:14;5.43;;;2.28;;
67965;SDS011;54749;47.850;9.002;2023-03-24T10:57:46;5.63;;;2.30;;
67965;SDS011;54749;47.850;9.002;2023-03-24T11:00:18;5.57;;;2.15;;
67965;SDS011;54749;47.850;9.002;2023-03-24T11:02:54;4.73;;;1.90;;
67965;SDS011;54749;47.850;9.002;2023-03-24T11:05:26;5.05;;;2.00;;
67965;SDS011;54749;47.850;9.002;2023-03-24T11:07:57;5.07;;;2.10;;
67965;SDS011;54749;47.850;9.002;2023-03-24T11:10:38;4.28;;;1.83;;
67965;SDS011;54749;47.850;9.002;2023-03-24T11:13:13;5.05;;;1.90;;
67965;SDS011;54749;47.850;9.002;2023-03-24T11:15:55;4.63;;;2.10;;
67965;SDS011;54749;47.850;9.002;2023-03-24T11:18:37;4.80;;;2.28;;
67965;SDS011;54749;47.850;9.002;2023-03-24T11:21:04;4.43;;;2.00;;
67965;SDS011;54749;47.850;9.002;2023-03-24T11:23:33;4.18;;;2.00;;
67965;SDS011;54749;47.850;9.002;2023-03-24T11:26:05;5.20;;;2.40;;
67965;SDS011;54749;47.850;9.002;2023-03-24T11:28:52;6.30;;;2.37;;
67965;SDS011;54749;47.850;9.002;2023-03-24T11:31:22;5.07;;;2.00;;
67965;SDS011;54749;47.850;9.002;2023-03-24T11:34:02;5.72;;;2.33;;
67965;SDS011;54749;47.850;9.002;2023-03-24T11:39:26;5.50;;;2.60;;
67965;SDS011;54749;47.850;9.002;2023-03-24T11:41:58;9.53;;;3.13;;
67965;SDS011;54749;47.850;9.002;2023-03-24T11:50:12;6.32;;;2.60;;
67965;SDS011;54749;47.850;9.002;2023-03-24T11:58:01;11.02;;;2.30;;
67965;SDS011;54749;47.850;9.002;2023-03-24T12:00:36;9.05;;;2.40;;
67965;SDS011;54749;47.850;9.002;2023-03-24T12:03:12;7.10;;;2.50;;
67965;SDS011;54749;47.850;9.002;2023-03-24T12:06:48;5.57;;;2.13;;
67965;SDS011;54749;47.850;9.002;2023-03-24T12:14:38;4.80;;;1.95;;
67965;SDS011;54749;47.850;9.002;2023-03-24T12:20:22;4.93;;;2.05;;
67965;SDS011;54749;47.850;9.002;2023-03-24T12:23:23;7.90;;;2.50;;
67965;SDS011;54749;47.850;9.002;2023-03-24T12:34:07;3.35;;;1.10;;
67965;SDS011;54749;47.850;9.002;2023-03-24T12:39:27;6.25;;;2.00;;
67965;SDS011;54749;47.850;9.002;2023-03-24T12:44:38;4.50;;;1.55;;
67965;SDS011;54749;47.850;9.002;2023-03-24T12:56:09;4.25;;;1.10;;
67965;SDS011;54749;47.850;9.002;2023-03-24T12:58:52;4.35;;;1.10;;
67965;SDS011;54749;47.850;9.002;2023-03-24T13:01:36;5.18;;;1.20;;
67965;SDS011;54749;47.850;9.002;2023-03-24T13:04:16;4.80;;;1.20;;
67965;SDS011;54749;47.850;9.002;2023-03-24T13:12:21;4.57;;;0.90;;
67965;SDS011;54749;47.850;9.002;2023-03-24T13:17:33;4.80;;;1.53;;
67965;SDS011;54749;47.850;9.002;2023-03-24T13:20:05;4.38;;;1.17;;
67965;SDS011;54749;47.850;9.002;2023-03-24T13:22:38;4.68;;;1.40;;
67965;SDS011;54749;47.850;9.002;2023-03-24T13:25:09;4.35;;;1.60;;
67965;SDS011;54749;47.850;9.002;2023-03-24T13:27:55;3.85;;;1.55;;
67965;SDS011;54749;47.850;9.002;2023-03-24T13:32:58;4.05;;;1.88;;
67965;SDS011;54749;47.850;9.002;2023-03-24T13:35:44;6.25;;;2.80;;
67965;SDS011;54749;47.850;9.002;2023-03-24T13:40:59;6.20;;;1.83;;
67965;SDS011;54749;47.850;9.002;2023-03-24T13:43:31;5.40;;;2.10;;
67965;SDS011;54749;47.850;9.002;2023-03-24T13:46:00;3.72;;;1.67;;
67965;SDS011;54749;47.850;9.002;2023-03-24T13:51:47;6.00;;;3.20;;
67965;SDS011;54749;47.850;9.002;2023-03-24T13:56:40;3.00;;;1.10;;
67965;SDS011;54749;47.850;9.002;2023-03-24T13:59:22;3.38;;;1.15;;
67965;SDS011;54749;47.850;9.002;2023-03-24T14:05:08;4.70;;;1.23;;
67965;SDS011;54749;47.850;9.002;2023-03-24T14:10:26;4.03;;;1.13;;
67965;SDS011;54749;47.850;9.002;2023-03-24T14:13:03;2.90;;;1.00;;
67965;SDS011;54749;47.850;9.002;2023-03-24T14:15:50;3.35;;;1.30;;
67965;SDS011;54749;47.850;9.002;2023-03-24T14:25:53;3.38;;;0.90;;
67965;SDS011;54749;47.850;9.002;2023-03-24T14:28:24;5.10;;;0.80;;
67965;SDS011;54749;47.850;9.002;2023-03-24T14:31:00;2.50;;;0.70;;
67965;SDS011;54749;47.850;9.002;2023-03-24T14:33:28;3.10;;;0.82;;
67965;SDS011;54749;47.850;9.002;2023-03-24T14:35:57;3.03;;;1.00;;
67965;SDS011;54749;47.850;9.002;2023-03-24T14:38:38;3.20;;;0.70;;
67965;SDS011;54749;47.850;9.002;2023-03-24T14:41:11;3.17;;;0.90;;
67965;SDS011;54749;47.850;9.002;2023-03-24T14:51:29;3.85;;;0.90;;
67965;SDS011;54749;47.850;9.002;2023-03-24T14:54:15;2.88;;;0.90;;
67965;SDS011;54749;47.850;9.002;2023-03-24T14:56:50;4.10;;;1.00;;
67965;SDS011;54749;47.850;9.002;2023-03-24T15:02:24;3.50;;;1.07;;
67965;SDS011;54749;47.850;9.002;2023-03-24T15:08:00;2.90;;;0.93;;
67965;SDS011;54749;47.850;9.002;2023-03-24T15:18:48;4.25;;;1.85;;
67965;SDS011;54749;47.850;9.002;2023-03-24T15:27:32;4.15;;;1.33;;
67965;SDS011;54749;47.850;9.002;2023-03-24T15:29:35;3.60;;;1.30;;
67965;SDS011;54749;47.850;9.002;2023-03-24T15:32:03;4.63;;;1.63;;
67965;SDS011;54749;47.850;9.002;2023-03-24T15:34:36;3.90;;;1.30;;
67965;SDS011;54749;47.850;9.002;2023-03-24T15:37:17;3.42;;;1.35;;
67965;SDS011;54749;47.850;9.002;2023-03-24T15:39:56;5.15;;;1.60;;
67965;SDS011;54749;47.850;9.002;2023-03-24T15:42:40;5.63;;;1.37;;
67965;SDS011;54749;47.850;9.002;2023-03-24T15:45:18;4.60;;;1.30;;
67965;SDS011;54749;47.850;9.002;2023-03-24T15:47:49;3.72;;;1.23;;
67965;SDS011;54749;47.850;9.002;2023-03-24T15:50:32;8.43;;;3.70;;
67965;SDS011;54749;47.850;9.002;2023-03-24T15:55:41;5.47;;;2.40;;
67965;SDS011;54749;47.850;9.002;2023-03-24T15:58:19;4.93;;;1.80;;
67965;SDS011;54749;47.850;9.002;2023-03-24T16:00:59;6.43;;;2.50;;
67965;SDS011;54749;47.850;9.002;2023-03-24T16:03:28;4.95;;;1.85;;
67965;SDS011;54749;47.850;9.002;2023-03-24T16:05:57;4.95;;;1.90;;
67965;SDS011;54749;47.850;9.002;2023-03-24T16:08:26;4.90;;;1.57;;
67965;SDS011;54749;47.850;9.002;2023-03-24T16:10:59;7.47;;;3.10;;
67965;SDS011;54749;47.850;9.002;2023-03-24T16:13:30;7.18;;;3.13;;
67965;SDS011;54749;47.850;9.002;2023-03-24T16:18:43;10.68;;;6.90;;
67965;SDS011;54749;47.850;9.002;2023-03-24T16:23:41;4.82;;;1.73;;
67965;SDS011;54749;47.850;9.002;2023-03-24T16:26:13;4.55;;;1.40;;
67965;SDS011;54749;47.850;9.002;2023-03-24T16:28:41;4.65;;;1.17;;
67965;SDS011;54749;47.850;9.002;2023-03-24T16:33:59;3.90;;;1.30;;
67965;SDS011;54749;47.850;9.002;2023-03-24T16:36:26;4.40;;;1.65;;
67965;SDS011;54749;47.850;9.002;2023-03-24T16:38:54;6.15;;;2.92;;
67965;SDS011;54749;47.850;9.002;2023-03-24T16:41:23;4.40;;;1.70;;
67965;SDS011;54749;47.850;9.002;2023-03-24T16:43:51;4.20;;;1.75;;
67965;SDS011;54749;47.850;9.002;2023-03-24T16:46:40;3.83;;;1.30;;
67965;SDS011;54749;47.850;9.002;2023-03-24T16:49:09;3.63;;;1.23;;
67965;SDS011;54749;47.850;9.002;2023-03-24T16:51:39;4.50;;;1.13;;
67965;SDS011;54749;47.850;9.002;2023-03-24T16:54:07;3.40;;;0.80;;
67965;SDS011;54749;47.850;9.002;2023-03-24T16:56:35;3.85;;;1.00;;
67965;SDS011;54749;47.850;9.002;2023-03-24T16:59:03;3.40;;;1.23;;
67965;SDS011;54749;47.850;9.002;2023-03-24T17:01:34;4.97;;;2.20;;
67965;SDS011;54749;47.850;9.002;2023-03-24T17:04:04;4.85;;;2.13;;
67965;SDS011;54749;47.850;9.002;2023-03-24T17:06:39;4.20;;;1.85;;
67965;SDS011;54749;47.850;9.002;2023-03-24T17:09:12;4.55;;;1.50;;
67965;SDS011;54749;47.850;9.002;2023-03-24T17:11:41;4.53;;;1.40;;
67965;SDS011;54749;47.850;9.002;2023-03-24T17:14:10;4.70;;;1.63;;
67965;SDS011;54749;47.850;9.002;2023-03-24T17:16:41;4.65;;;1.70;;
67965;SDS011;54749;47.850;9.002;2023-03-24T17:19:10;5.18;;;2.47;;
67965;SDS011;54749;47.850;9.002;2023-03-24T17:21:42;9.88;;;7.38;;
67965;SDS011;54749;47.850;9.002;2023-03-24T17:24:13;7.53;;;4.27;;
67965;SDS011;54749;47.850;9.002;2023-03-24T17:26:40;7.10;;;3.30;;
67965;SDS011;54749;47.850;9.002;2023-03-24T17:29:08;7.18;;;2.47;;
67965;SDS011;54749;47.850;9.002;2023-03-24T17:31:38;7.78;;;3.97;;
67965;SDS011;54749;47.850;9.002;2023-03-24T17:34:05;5.10;;;2.35;;
67965;SDS011;54749;47.850;9.002;2023-03-24T17:36:47;6.80;;;2.30;;
67965;SDS011;54749;47.850;9.002;2023-03-24T17:39:17;10.73;;;4.28;;
67965;SDS011;54749;47.850;9.002;2023-03-24T17:41:46;8.52;;;3.85;;
67965;SDS011;54749;47.850;9.002;2023-03-24T17:44:13;6.80;;;3.05;;
67965;SDS011;54749;47.850;9.002;2023-03-24T17:46:40;6.28;;;3.25;;
67965;SDS011;54749;47.850;9.002;2023-03-24T17:49:07;7.28;;;3.17;;
67965;SDS011;54749;47.850;9.002;2023-03-24T17:51:35;20.83;;;11.90;;
67965;SDS011;54749;47.850;9.002;2023-03-24T17:54:02;11.88;;;5.35;;
67965;SDS011;54749;47.850;9.002;2023-03-24T17:56:30;35.00;;;14.55;;
67965;SDS011;54749;47.850;9.002;2023-03-24T17:58:57;25.98;;;12.07;;
67965;SDS011;54749;47.850;9.002;2023-03-24T18:01:25;15.65;;;7.72;;
67965;SDS011;54749;47.850;9.002;2023-03-24T18:03:55;17.90;;;7.70;;
67965;SDS011;54749;47.850;9.002;2023-03-24T18:06:24;20.63;;;9.18;;
67965;SDS011;54749;47.850;9.002;2023-03-24T18:08:52;8.90;;;3.50;;
67965;SDS011;54749;47.850;9.002;2023-03-24T18:11:20;8.30;;;3.78;;
67965;SDS011;54749;47.850;9.002;2023-03-24T18:13:47;9.00;;;3.35;;